Time;durP1;ratioP1;P1;durP2;ratioP2;P2;SDS_P1;SDS_P2;PMS_P1;PMS_P2;Temp;Humidity;BMP_temperature;BMP_pressure;BME280_temperature;BME280_humidity;BME280_pressure;Samples;Min_cycle;Max_cycle;Signal;HPM_P1;HPM_P2
2023/05/24 00:01:24;;;;;;;4.15;1.33;;;7.80;99.90;;;;;;5072840;28;20111;-64
2023/05/24 00:03:57;;;;;;;9.55;1.88;;;7.80;1.00;;;;;;5072821;28;20036;-64
2023/05/24 00:06:25;;;;;;;7.03;1.70;;;8.90;1.00;;;;;;5054651;28;20052;-64
2023/05/24 00:08:51;;;;;;;8.55;1.50;;;7.80;1.00;;;;;;5072617;28;20093;-64
2023/05/24 00:11:17;;;;;;;13.68;2.30;;;7.80;1.00;;;;;;5072574;28;20047;-64
2023/05/24 00:13:43;;;;;;;10.57;2.17;;;7.80;1.00;;;;;;5072508;28;20057;-64
2023/05/24 00:16:09;;;;;;;5.75;1.60;;;7.80;1.00;;;;;;5072673;28;20098;-64
2023/05/24 00:18:39;;;;;;;11.65;2.25;;;7.80;1.00;;;;;;5071559;28;20072;-64
2023/05/24 00:21:09;;;;;;;6.38;2.08;;;7.80;1.00;;;;;;5072725;28;20439;-64
2023/05/24 00:23:38;;;;;;;7.57;1.90;;;7.80;1.00;;;;;;5072496;28;20036;-64
2023/05/24 00:26:05;;;;;;;10.35;1.63;;;7.80;1.00;;;;;;5072384;28;20132;-64
2023/05/24 00:28:31;;;;;;;7.18;1.50;;;7.70;1.00;;;;;;5074783;28;20040;-64
2023/05/24 00:30:57;;;;;;;4.82;1.40;;;7.80;1.00;;;;;;5076612;28;20043;-64
2023/05/24 00:33:23;;;;;;;6.10;1.70;;;7.70;1.00;;;;;;5076614;28;20396;-64
2023/05/24 00:35:54;;;;;;;5.50;1.83;;;7.70;1.00;;;;;;5076178;28;20047;-65
2023/05/24 00:38:24;;;;;;;6.97;2.17;;;7.70;1.00;;;;;;5058294;28;20040;-64
2023/05/24 00:40:50;;;;;;;8.00;1.48;;;7.60;3.00;;;;;;5076132;28;20105;-64
2023/05/24 00:43:16;;;;;;;9.30;2.42;;;7.60;1.00;;;;;;5058182;28;20073;-64
2023/05/24 00:45:41;;;;;;;4.97;1.92;;;7.60;1.00;;;;;;5076392;28;20111;-64
2023/05/24 00:48:08;;;;;;;9.68;1.90;;;7.60;14.10;;;;;;5058055;28;20048;-63
2023/05/24 00:50:35;;;;;;;4.75;2.10;;;8.00;15.10;;;;;;5076186;28;20124;-63
2023/05/24 00:53:02;;;;;;;6.93;2.10;;;7.60;20.70;;;;;;5076215;28;20063;-63
2023/05/24 00:55:29;;;;;;;8.55;2.67;;;7.50;16.00;;;;;;5076022;28;20404;-64
2023/05/24 00:57:56;;;;;;;9.98;2.15;;;7.40;14.80;;;;;;5075772;28;20040;-64
2023/05/24 01:00:22;;;;;;;7.45;2.03;;;7.50;45.70;;;;;;5075721;28;20056;-64
2023/05/24 01:02:49;;;;;;;10.70;2.28;;;7.40;54.90;;;;;;5075765;28;20086;-64
2023/05/24 01:05:18;;;;;;;3.72;1.63;;;8.30;47.10;;;;;;5058046;28;20040;-65
2023/05/24 01:08:15;;;;;;;8.80;1.90;;;7.40;24.10;;;;;;5075926;28;20040;-64
2023/05/24 01:10:57;;;;;;;4.35;1.40;;;7.40;21.50;;;;;;5058015;28;20071;-63
2023/05/24 01:13:28;;;;;;;6.78;2.10;;;7.40;38.10;;;;;;5057626;28;20053;-64
2023/05/24 01:16:18;;;;;;;9.15;1.73;;;7.70;43.00;;;;;;5074282;28;20048;-64
2023/05/24 01:18:51;;;;;;;12.23;1.90;;;7.40;51.90;;;;;;5075824;28;20055;-64
2023/05/24 01:21:37;;;;;;;10.85;2.33;;;7.40;53.10;;;;;;5057668;28;20392;-64
2023/05/24 01:24:21;;;;;;;12.25;1.75;;;7.80;38.60;;;;;;5075414;28;20439;-64
2023/05/24 01:27:02;;;;;;;2.50;1.38;;;7.80;36.30;;;;;;5057310;28;20377;-64
2023/05/24 01:29:30;;;;;;;5.50;1.90;;;7.40;53.40;;;;;;5075445;28;20123;-63
2023/05/24 01:31:56;;;;;;;5.70;1.77;;;7.30;55.90;;;;;;5075434;28;20037;-64
2023/05/24 01:34:23;;;;;;;5.93;1.60;;;7.40;54.70;;;;;;5057250;28;20049;-64
2023/05/24 01:36:49;;;;;;;4.05;1.90;;;7.40;65.00;;;;;;5075292;28;20040;-64
2023/05/24 01:39:15;;;;;;;6.90;1.85;;;7.40;62.70;;;;;;5075060;28;20544;-64
2023/05/24 01:41:55;;;;;;;3.53;1.67;;;7.40;60.00;;;;;;5075304;28;20036;-63
2023/05/24 01:44:30;;;;;;;5.40;2.30;;;7.50;48.20;;;;;;5075258;28;20534;-64
2023/05/24 01:47:03;;;;;;;8.98;1.80;;;7.40;61.10;;;;;;5075230;28;20051;-64
2023/05/24 01:49:36;;;;;;;7.75;1.80;;;7.50;63.60;;;;;;5074910;28;20495;-64
2023/05/24 01:52:14;;;;;;;6.32;1.98;;;7.60;65.30;;;;;;5057187;28;20090;-64
2023/05/24 01:54:44;;;;;;;9.50;1.83;;;7.60;88.60;;;;;;5075105;28;20507;-64
2023/05/24 01:57:10;;;;;;;10.45;2.00;;;7.60;88.70;;;;;;5074939;28;20093;-64
2023/05/24 01:59:38;;;;;;;9.90;1.70;;;7.60;90.00;;;;;;5074723;28;20048;-64
2023/05/24 02:02:04;;;;;;;2.47;1.30;;;7.60;93.40;;;;;;5074910;28;20361;-64
2023/05/24 02:04:30;;;;;;;3.15;1.55;;;7.70;93.40;;;;;;5074624;28;20576;-64
2023/05/24 02:06:56;;;;;;;7.05;1.92;;;7.70;92.50;;;;;;5056856;28;20129;-64
2023/05/24 02:09:21;;;;;;;6.85;2.03;;;7.70;89.90;;;;;;5074808;28;20083;-64
2023/05/24 02:11:47;;;;;;;11.32;2.05;;;7.80;92.40;;;;;;5074416;28;20048;-64
2023/05/24 02:14:13;;;;;;;6.10;1.52;;;7.80;90.30;;;;;;5074655;28;20056;-64
2023/05/24 02:16:41;;;;;;;5.22;1.60;;;8.40;76.70;;;;;;5074252;28;20483;-64
2023/05/24 02:19:08;;;;;;;7.47;1.63;;;7.80;65.80;;;;;;5056385;28;20044;-64
2023/05/24 02:21:35;;;;;;;10.80;2.30;;;7.80;62.70;;;;;;5073277;28;20572;-63
2023/05/24 02:24:00;;;;;;;12.07;2.25;;;7.80;86.40;;;;;;5074462;28;20045;-64
2023/05/24 02:26:26;;;;;;;13.48;2.03;;;7.80;68.40;;;;;;5074378;28;20559;-64
2023/05/24 02:28:52;;;;;;;4.53;1.83;;;8.20;78.20;;;;;;5074195;28;20075;-64
2023/05/24 02:31:17;;;;;;;4.53;1.67;;;7.70;79.50;;;;;;5074281;28;20075;-64
2023/05/24 02:33:43;;;;;;;4.25;1.60;;;7.70;85.10;;;;;;5074367;28;20537;-64
2023/05/24 02:36:09;;;;;;;17.63;2.72;;;7.70;81.70;;;;;;5073994;28;20044;-63
2023/05/24 02:38:35;;;;;;;10.63;1.95;;;7.60;82.20;;;;;;5056131;28;20082;-64
2023/05/24 02:41:02;;;;;;;5.80;1.70;;;7.60;85.80;;;;;;5074145;28;20041;-64
2023/05/24 02:43:27;;;;;;;10.50;2.80;;;7.60;92.60;;;;;;5074097;28;20041;-64
2023/05/24 02:45:53;;;;;;;7.70;2.00;;;8.30;93.50;;;;;;5074080;28;20472;-64
2023/05/24 02:48:18;;;;;;;9.25;1.88;;;8.10;94.60;;;;;;5056229;28;20047;-64
2023/05/24 02:50:44;;;;;;;7.55;1.90;;;7.50;96.00;;;;;;5072960;28;20044;-64
2023/05/24 02:53:10;;;;;;;9.25;2.03;;;7.50;95.20;;;;;;5073821;28;20127;-64
2023/05/24 02:55:36;;;;;;;7.18;1.63;;;7.50;96.00;;;;;;5055615;28;20082;-64
2023/05/24 02:58:01;;;;;;;8.95;2.00;;;7.50;95.70;;;;;;5073884;28;20489;-64
2023/05/24 03:00:27;;;;;;;6.60;1.98;;;7.50;93.40;;;;;;5073725;28;20071;-65
2023/05/24 03:02:55;;;;;;;4.53;1.50;;;7.50;92.40;;;;;;5073460;28;20047;-64
2023/05/24 03:05:21;;;;;;;10.35;2.03;;;7.50;92.30;;;;;;5073411;28;20428;-64
2023/05/24 03:07:46;;;;;;;3.03;1.20;;;7.50;91.10;;;;;;5055502;28;20059;-64
2023/05/24 03:10:12;;;;;;;8.43;1.80;;;7.50;91.10;;;;;;5073515;28;20522;-64
2023/05/24 03:12:37;;;;;;;7.55;1.67;;;7.50;91.80;;;;;;5073219;28;20051;-64
2023/05/24 03:15:04;;;;;;;4.32;2.05;;;7.60;95.10;;;;;;5073512;28;20441;-64
2023/05/24 03:17:29;;;;;;;10.57;2.35;;;7.60;95.70;;;;;;5073080;28;20044;-64
2023/05/24 03:19:55;;;;;;;10.35;1.92;;;7.60;96.50;;;;;;5073071;28;20515;-64
2023/05/24 03:22:20;;;;;;;5.03;1.90;;;9.10;97.30;;;;;;5073377;28;20032;-64
2023/05/24 03:24:47;;;;;;;6.65;2.15;;;7.70;97.50;;;;;;5073338;28;20035;-64
2023/05/24 03:27:13;;;;;;;5.93;1.80;;;8.40;96.50;;;;;;5073091;28;20202;-64
2023/05/24 03:29:38;;;;;;;4.35;1.50;;;7.90;99.60;;;;;;5073318;28;20047;-64
2023/05/24 03:32:04;;;;;;;4.07;1.48;;;8.00;99.80;;;;;;5073243;28;20044;-64
2023/05/24 03:34:30;;;;;;;7.72;2.00;;;8.00;99.00;;;;;;5073135;28;20473;-64
2023/05/24 03:36:56;;;;;;;4.40;2.35;;;8.10;99.80;;;;;;5073162;28;20472;-64
2023/05/24 03:39:22;;;;;;;8.13;1.77;;;8.20;95.30;;;;;;5073103;28;20044;-64
2023/05/24 03:41:47;;;;;;;9.30;1.58;;;8.20;96.50;;;;;;5073431;28;20041;-64
2023/05/24 03:44:13;;;;;;;3.75;1.30;;;8.60;94.20;;;;;;5073182;28;20456;-64
2023/05/24 03:46:39;;;;;;;6.15;1.50;;;8.30;93.00;;;;;;5055091;28;20484;-64
2023/05/24 03:49:06;;;;;;;5.07;1.98;;;8.40;94.80;;;;;;5072808;28;20119;-64
2023/05/24 03:51:31;;;;;;;6.10;1.67;;;8.40;93.90;;;;;;5054940;28;20089;-64
2023/05/24 03:53:58;;;;;;;2.90;1.23;;;8.40;94.40;;;;;;5072776;28;20042;-64
2023/05/24 03:56:25;;;;;;;7.00;1.80;;;8.40;96.90;;;;;;5072832;28;20090;-64
2023/05/24 03:58:51;;;;;;;11.20;2.22;;;8.40;93.80;;;;;;5073031;28;20071;-64
2023/05/24 04:01:18;;;;;;;6.38;1.95;;;8.50;93.30;;;;;;5072760;28;20083;-64
2023/05/24 04:03:44;;;;;;;5.75;1.55;;;8.50;91.40;;;;;;5072709;28;20093;-64
2023/05/24 04:06:11;;;;;;;3.47;1.52;;;8.50;93.20;;;;;;5055095;28;20036;-64
2023/05/24 04:08:37;;;;;;;7.75;1.90;;;8.60;91.30;;;;;;5072955;28;20392;-64
2023/05/24 04:11:03;;;;;;;10.27;1.50;;;7.80;91.40;;;;;;5072705;28;20052;-64
2023/05/24 04:13:29;;;;;;;10.43;1.67;;;9.30;92.60;;;;;;5072478;28;20064;-64
2023/05/24 04:15:54;;;;;;;6.75;1.63;;;8.60;90.80;;;;;;5072465;28;20078;-64
2023/05/24 04:18:20;;;;;;;8.95;1.95;;;8.70;88.30;;;;;;5054537;28;20044;-64
2023/05/24 04:20:46;;;;;;;3.80;1.75;;;8.70;80.50;;;;;;5072730;28;20072;-64
2023/05/24 04:23:11;;;;;;;4.47;1.70;;;8.70;83.70;;;;;;5072675;28;20408;-64
2023/05/24 04:25:37;;;;;;;6.68;2.03;;;8.80;83.20;;;;;;5072716;28;20094;-64
2023/05/24 04:28:03;;;;;;;5.57;1.90;;;8.80;89.20;;;;;;5072431;28;20040;-65
2023/05/24 04:30:29;;;;;;;8.68;2.03;;;8.90;81.20;;;;;;5054525;28;20036;-64
2023/05/24 04:32:56;;;;;;;9.52;2.20;;;8.90;79.50;;;;;;5072636;28;20048;-64
2023/05/24 04:35:22;;;;;;;6.32;1.70;;;8.90;81.60;;;;;;5054283;28;20040;-64
2023/05/24 04:37:49;;;;;;;4.82;1.30;;;9.00;68.40;;;;;;5072567;28;20052;-64
2023/05/24 04:40:15;;;;;;;9.73;2.17;;;9.30;57.20;;;;;;5054287;28;20048;-64
2023/05/24 04:42:41;;;;;;;9.52;1.67;;;9.10;55.70;;;;;;5072336;28;20119;-64
2023/05/24 04:45:07;;;;;;;8.23;1.45;;;9.20;50.70;;;;;;5072484;28;20471;-64
2023/05/24 04:47:33;;;;;;;8.30;1.95;;;9.20;33.20;;;;;;5072130;28;20040;-64
2023/05/24 04:49:58;;;;;;;5.75;1.80;;;9.30;37.30;;;;;;5072480;28;20032;-64
2023/05/24 04:52:24;;;;;;;5.35;1.40;;;9.40;25.20;;;;;;5054586;28;20115;-64
2023/05/24 04:54:50;;;;;;;3.67;1.55;;;9.50;22.30;;;;;;5072161;28;20477;-64
2023/05/24 04:57:16;;;;;;;4.50;1.55;;;9.60;19.10;;;;;;5054489;28;20079;-64
2023/05/24 04:59:43;;;;;;;5.25;1.30;;;9.70;2.60;;;;;;5072351;28;20097;-64
2023/05/24 05:02:08;;;;;;;3.22;1.40;;;9.70;1.00;;;;;;5072307;28;20033;-64
2023/05/24 05:04:34;;;;;;;2.10;1.35;;;9.70;1.00;;;;;;5072099;28;20043;-64
2023/05/24 05:06:59;;;;;;;3.47;1.20;;;9.60;1.00;;;;;;5072350;28;20476;-64
2023/05/24 05:09:26;;;;;;;3.92;2.00;;;9.80;1.00;;;;;;5072278;28;20036;-66
2023/05/24 05:11:52;;;;;;;6.05;1.80;;;9.70;1.00;;;;;;5071832;28;20056;-66
2023/05/24 05:14:18;;;;;;;8.13;2.25;;;9.80;1.00;;;;;;5074099;28;20047;-64
2023/05/24 05:16:46;;;;;;;3.80;1.92;;;9.90;1.00;;;;;;5075796;28;20533;-64
2023/05/24 05:19:12;;;;;;;4.57;1.27;;;9.80;1.00;;;;;;5041015;28;20083;-64
2023/05/24 05:21:38;;;;;;;5.93;1.38;;;9.80;1.00;;;;;;5075791;28;20063;-64
2023/05/24 05:24:04;;;;;;;5.88;2.00;;;9.90;1.00;;;;;;5075495;28;20076;-65
2023/05/24 05:26:30;;;;;;;8.07;1.38;;;9.90;1.00;;;;;;5075350;28;20087;-65
2023/05/24 05:28:56;;;;;;;3.55;1.20;;;9.70;1.00;;;;;;5057431;28;20040;-64
2023/05/24 05:31:22;;;;;;;8.80;1.65;;;9.80;1.00;;;;;;5075229;28;20072;-65
2023/05/24 05:33:48;;;;;;;3.15;1.65;;;10.20;1.00;;;;;;5075264;28;20072;-68
2023/05/24 05:36:14;;;;;;;11.93;1.65;;;9.90;1.00;;;;;;5075151;28;20040;-68
2023/05/24 05:38:40;;;;;;;6.82;1.55;;;9.90;1.00;;;;;;5075545;28;20120;-67
2023/05/24 05:41:06;;;;;;;5.07;1.33;;;9.70;1.00;;;;;;5057267;28;20079;-64
2023/05/24 05:43:31;;;;;;;9.73;1.75;;;10.10;1.00;;;;;;5075079;28;20064;-64
2023/05/24 05:45:57;;;;;;;8.13;1.58;;;10.30;1.00;;;;;;5057136;28;20044;-66
2023/05/24 05:48:23;;;;;;;3.78;1.13;;;10.60;99.90;;;;;;5074972;28;20413;-65
2023/05/24 05:50:48;;;;;;;8.75;1.80;;;10.80;99.90;;;;;;5057439;28;20036;-69
2023/05/24 05:53:16;;;;;;;11.05;1.88;;;11.00;99.90;;;;;;5075153;28;20072;-69
2023/05/24 05:55:42;;;;;;;9.32;1.50;;;11.90;57.20;;;;;;5057128;28;20544;-65
2023/05/24 05:58:07;;;;;;;8.35;1.65;;;11.20;99.90;;;;;;5074789;28;20124;-64
2023/05/24 06:00:33;;;;;;;5.75;1.90;;;11.20;99.90;;;;;;5074960;28;20043;-64
2023/05/24 06:02:59;;;;;;;7.80;1.42;;;11.20;99.90;;;;;;5074975;28;20043;-64
2023/05/24 06:05:24;;;;;;;7.78;1.75;;;11.30;1.00;;;;;;5074940;28;20032;-64
2023/05/24 06:07:50;;;;;;;2.30;1.00;;;11.30;99.90;;;;;;5056637;28;20036;-65
2023/05/24 06:10:16;;;;;;;3.45;1.83;;;11.30;99.90;;;;;;5074745;28;20048;-65
2023/05/24 06:12:41;;;;;;;7.32;1.67;;;11.30;90.70;;;;;;5074418;28;20390;-65
2023/05/24 06:15:08;;;;;;;5.82;2.03;;;11.40;99.90;;;;;;5040064;28;20056;-64
2023/05/24 06:17:34;;;;;;;6.25;1.63;;;11.30;94.40;;;;;;5074610;28;20036;-64
2023/05/24 06:20:00;;;;;;;8.25;1.50;;;11.40;99.90;;;;;;5074578;28;20063;-64
2023/05/24 06:22:29;;;;;;;7.43;1.38;;;11.80;99.90;;;;;;5074541;28;20044;-63
2023/05/24 06:24:55;;;;;;;5.88;1.63;;;11.60;99.90;;;;;;5073596;28;20492;-63
2023/05/24 06:27:20;;;;;;;5.53;1.42;;;11.60;1.00;;;;;;5074249;28;20048;-64
2023/05/24 06:29:46;;;;;;;3.70;1.17;;;11.70;99.90;;;;;;5074494;28;20044;-64
2023/05/24 06:32:11;;;;;;;4.05;1.70;;;11.70;1.00;;;;;;5073997;28;20044;-64
2023/05/24 06:34:37;;;;;;;6.28;1.30;;;11.70;1.00;;;;;;5074300;28;20036;-63
2023/05/24 06:37:03;;;;;;;5.38;1.83;;;11.80;1.00;;;;;;5072931;28;20055;-63
2023/05/24 06:39:31;;;;;;;5.07;1.20;;;11.70;99.90;;;;;;5056273;28;20036;-63
2023/05/24 06:41:57;;;;;;;6.80;1.80;;;11.70;99.90;;;;;;5056709;28;20041;-63
2023/05/24 06:44:29;;;;;;;7.20;1.60;;;11.60;99.90;;;;;;5074013;28;20119;-63
2023/05/24 06:46:55;;;;;;;3.38;1.17;;;11.70;1.00;;;;;;5074067;28;20040;-63
2023/05/24 06:49:23;;;;;;;4.95;1.77;;;13.50;13.20;;;;;;5073713;28;20044;-63
2023/05/24 06:51:49;;;;;;;3.78;1.40;;;11.90;1.00;;;;;;5073781;28;20040;-63
2023/05/24 06:54:14;;;;;;;6.70;1.63;;;12.20;1.00;;;;;;5073626;28;20051;-63
2023/05/24 06:56:40;;;;;;;8.50;2.08;;;12.20;54.10;;;;;;5073845;28;20086;-63
2023/05/24 06:59:07;;;;;;;3.03;1.10;;;12.20;1.00;;;;;;5055707;28;20072;-64
2023/05/24 07:01:33;;;;;;;4.60;1.50;;;12.20;1.00;;;;;;5073536;28;20550;-64
2023/05/24 07:03:58;;;;;;;7.05;1.60;;;12.20;1.00;;;;;;5055664;28;20127;-64
2023/05/24 07:06:24;;;;;;;6.90;1.65;;;13.10;1.00;;;;;;5073728;28;20119;-63
2023/05/24 07:08:49;;;;;;;3.38;1.30;;;12.10;99.90;;;;;;5055851;28;20147;-64
2023/05/24 07:11:15;;;;;;;3.40;1.60;;;12.00;99.90;;;;;;5073178;28;20086;-64
2023/05/24 07:13:41;;;;;;;6.47;1.33;;;12.10;99.90;;;;;;5073648;28;20083;-64
2023/05/24 07:16:06;;;;;;;2.72;1.08;;;12.20;99.90;;;;;;5073277;28;20033;-64
2023/05/24 07:18:32;;;;;;;4.30;1.67;;;12.20;99.90;;;;;;5073483;28;20480;-64
2023/05/24 07:20:58;;;;;;;10.57;1.52;;;12.20;99.90;;;;;;5073378;28;20067;-64
2023/05/24 07:23:24;;;;;;;3.47;1.10;;;12.30;99.90;;;;;;5055296;28;20376;-64
2023/05/24 07:25:50;;;;;;;3.35;1.40;;;12.30;99.90;;;;;;5073196;28;20052;-64
2023/05/24 07:28:18;;;;;;;5.35;1.17;;;12.50;99.90;;;;;;5055286;28;20048;-64
2023/05/24 07:30:44;;;;;;;6.40;1.40;;;12.60;99.90;;;;;;5055590;28;20087;-64
2023/05/24 07:33:11;;;;;;;4.65;1.73;;;13.70;99.90;;;;;;5073362;28;20044;-64
2023/05/24 07:35:37;;;;;;;2.15;1.00;;;13.00;99.90;;;;;;5055092;28;20118;-64
2023/05/24 07:38:03;;;;;;;6.60;1.50;;;13.30;99.90;;;;;;5072999;28;20043;-64
2023/05/24 07:40:28;;;;;;;5.55;1.13;;;13.30;99.90;;;;;;5072988;28;20484;-64
2023/05/24 07:42:54;;;;;;;4.32;1.17;;;13.30;99.90;;;;;;5072959;28;20469;-64
2023/05/24 07:45:20;;;;;;;2.58;1.15;;;13.10;99.90;;;;;;5055100;28;20048;-64
2023/05/24 07:47:45;;;;;;;4.35;1.20;;;13.00;99.90;;;;;;5073173;28;20561;-64
2023/05/24 07:50:11;;;;;;;3.17;1.05;;;12.90;99.90;;;;;;5073111;28;20033;-64
2023/05/24 07:52:37;;;;;;;5.03;1.30;;;12.90;99.90;;;;;;5055001;28;20044;-64
2023/05/24 07:55:04;;;;;;;7.55;1.20;;;13.00;99.90;;;;;;5054837;28;20052;-64
2023/05/24 07:57:29;;;;;;;5.38;1.50;;;12.90;99.90;;;;;;5038464;28;20041;-64
2023/05/24 07:59:55;;;;;;;3.03;1.13;;;12.90;99.90;;;;;;5073030;28;20086;-64
2023/05/24 08:02:21;;;;;;;3.22;1.25;;;13.40;99.90;;;;;;5055093;28;20037;-64
2023/05/24 08:04:47;;;;;;;3.58;1.23;;;13.30;99.90;;;;;;5054754;28;20045;-64
2023/05/24 08:07:13;;;;;;;3.22;1.15;;;13.40;99.90;;;;;;5072903;28;20194;-64
2023/05/24 08:09:39;;;;;;;2.63;1.20;;;13.60;99.90;;;;;;5055103;28;20389;-65
2023/05/24 08:12:05;;;;;;;4.18;1.67;;;13.70;99.90;;;;;;5072560;28;20539;-64
2023/05/24 08:14:31;;;;;;;7.35;2.00;;;13.80;99.90;;;;;;5072883;28;20123;-64
2023/05/24 08:16:59;;;;;;;2.30;1.20;;;13.90;99.90;;;;;;5054679;28;20099;-64
2023/05/24 08:19:26;;;;;;;4.35;1.08;;;13.90;99.90;;;;;;5072833;28;20098;-64
2023/05/24 08:21:53;;;;;;;4.35;1.27;;;13.80;99.90;;;;;;5072919;28;20115;-64
2023/05/24 08:24:19;;;;;;;2.13;1.17;;;13.70;99.90;;;;;;5072591;28;20047;-64
2023/05/24 08:26:45;;;;;;;2.72;1.25;;;13.60;99.90;;;;;;5072633;28;20076;-64
2023/05/24 08:29:11;;;;;;;2.83;1.10;;;13.60;99.90;;;;;;5072768;28;20079;-64
2023/05/24 08:31:37;;;;;;;3.05;1.60;;;13.70;99.90;;;;;;5072669;28;20499;-64
2023/05/24 08:34:03;;;;;;;6.18;1.23;;;13.70;99.90;;;;;;5072692;28;20472;-64
2023/05/24 08:36:29;;;;;;;3.67;1.00;;;13.70;99.90;;;;;;5054427;28;20105;-64
2023/05/24 08:38:54;;;;;;;5.40;1.70;;;13.70;99.90;;;;;;5072567;28;20044;-64
2023/05/24 08:41:21;;;;;;;2.63;1.20;;;14.00;99.90;;;;;;5072550;28;20043;-64
2023/05/24 08:43:47;;;;;;;5.80;1.85;;;14.30;99.90;;;;;;5054349;28;20408;-64
2023/05/24 08:46:16;;;;;;;15.73;1.45;;;14.40;99.90;;;;;;5072583;28;20124;-64
2023/05/24 08:48:46;;;;;;;2.90;1.20;;;14.30;99.90;;;;;;5072405;28;20483;-64
2023/05/24 08:51:15;;;;;;;6.20;1.27;;;14.10;99.90;;;;;;5076014;28;20052;-64
2023/05/24 08:53:47;;;;;;;3.28;1.23;;;14.20;99.90;;;;;;5074816;28;20049;-64
2023/05/24 08:56:16;;;;;;;3.83;1.70;;;14.20;99.90;;;;;;5075857;28;20089;-64
2023/05/24 08:58:42;;;;;;;3.47;0.95;;;14.10;99.90;;;;;;5076257;28;20594;-64
2023/05/24 09:01:09;;;;;;;5.45;1.30;;;14.10;99.90;;;;;;5076119;28;20029;-64
2023/05/24 09:03:36;;;;;;;3.22;1.30;;;14.10;99.90;;;;;;5076113;28;20167;-64
2023/05/24 09:06:03;;;;;;;2.60;1.08;;;14.10;99.90;;;;;;5076087;28;20048;-64
2023/05/24 09:08:34;;;;;;;2.33;1.15;;;14.10;99.90;;;;;;5076281;28;20044;-64
2023/05/24 09:11:00;;;;;;;;;;;14.00;99.90;;;;;;5058164;28;20094;-64
2023/05/24 09:13:28;;;;;;;3.75;0.70;;;14.00;99.50;;;;;;5075511;28;19916;-64
2023/05/24 09:15:54;;;;;;;1.38;1.00;;;14.20;99.90;;;;;;5075862;28;20037;-64
2023/05/24 09:18:20;;;;;;;3.70;1.00;;;14.50;99.90;;;;;;5075540;28;20399;-64
2023/05/24 09:20:45;;;;;;;4.82;0.90;;;14.50;99.90;;;;;;5041035;28;20037;-64
2023/05/24 09:23:12;;;;;;;3.10;1.00;;;14.40;92.90;;;;;;5075802;28;20369;-64
2023/05/24 09:25:43;;;;;;;3.13;1.08;;;14.50;94.70;;;;;;5075430;28;20093;-64
2023/05/24 09:28:13;;;;;;;2.92;1.42;;;14.50;92.90;;;;;;5075709;28;20032;-64
2023/05/24 09:30:41;;;;;;;5.50;0.93;;;14.70;96.80;;;;;;5075626;28;20067;-64
2023/05/24 09:33:07;;;;;;;2.28;1.00;;;15.40;15.60;;;;;;5075684;28;20113;-64
2023/05/24 09:35:35;;;;;;;1.85;1.23;;;14.90;20.80;;;;;;5075179;28;20044;-64
2023/05/24 09:38:00;;;;;;;1.15;0.90;;;15.00;20.80;;;;;;5057622;28;20393;-64
2023/05/24 09:40:28;;;;;;;1.88;1.02;;;15.00;24.00;;;;;;5075411;28;20040;-64
2023/05/24 09:43:10;;;;;;;3.22;1.30;;;15.20;19.70;;;;;;5075403;28;20089;-64
2023/05/24 09:45:48;;;;;;;2.05;1.10;;;15.20;5.30;;;;;;5057451;28;20586;-64
2023/05/24 09:48:16;;;;;;;3.65;1.30;;;14.80;1.00;;;;;;5075061;28;20439;-65
2023/05/24 09:50:44;;;;;;;2.95;1.27;;;14.90;7.20;;;;;;5075335;28;20036;-64
2023/05/24 09:53:10;;;;;;;4.82;1.40;;;14.70;9.10;;;;;;5057009;28;20040;-64
2023/05/24 09:55:36;;;;;;;5.40;1.20;;;14.70;1.00;;;;;;5056990;28;20072;-64
2023/05/24 09:58:08;;;;;;;3.28;1.45;;;14.50;1.00;;;;;;5075203;28;20043;-64
2023/05/24 10:00:39;;;;;;;3.20;1.17;;;15.50;5.50;;;;;;5074918;28;20032;-63
2023/05/24 10:03:09;;;;;;;7.20;1.30;;;15.00;12.60;;;;;;5040280;28;20055;-63
2023/05/24 10:05:36;;;;;;;6.07;1.00;;;15.30;99.90;;;;;;5074731;28;20037;-64
2023/05/24 10:08:05;;;;;;;3.53;1.15;;;15.50;97.70;;;;;;5075004;28;20037;-65
2023/05/24 10:10:32;;;;;;;2.08;1.20;;;15.60;98.40;;;;;;5074919;28;20453;-67
2023/05/24 10:13:00;;;;;;;4.32;1.45;;;15.90;95.00;;;;;;5056522;28;20049;-63
2023/05/24 10:15:26;;;;;;;6.13;1.40;;;16.00;99.90;;;;;;5056991;28;20041;-64
2023/05/24 10:17:53;;;;;;;3.45;1.20;;;16.20;99.50;;;;;;5074788;28;20082;-67
2023/05/24 10:20:19;;;;;;;3.75;1.42;;;16.40;98.20;;;;;;5074748;28;20036;-64
2023/05/24 10:22:46;;;;;;;3.28;1.35;;;16.20;95.70;;;;;;5074636;28;20025;-64
2023/05/24 10:25:26;;;;;;;3.42;1.13;;;16.00;94.70;;;;;;5074282;28;20044;-64
2023/05/24 10:27:55;;;;;;;2.80;1.38;;;15.90;93.00;;;;;;5040597;28;20126;-63
2023/05/24 10:30:49;;;;;;;3.97;1.35;;;15.80;92.10;;;;;;5073244;28;20404;-64
2023/05/24 10:33:17;;;;;;;5.05;1.00;;;15.80;90.70;;;;;;5074396;28;20127;-65
2023/05/24 10:35:43;;;;;;;2.05;1.30;;;16.10;90.50;;;;;;5073079;28;20048;-63
2023/05/24 10:38:09;;;;;;;2.58;1.13;;;15.50;90.60;;;;;;5074324;28;20392;-63
2023/05/24 10:40:40;;;;;;;5.60;1.10;;;15.20;89.40;;;;;;5055937;28;20060;-63
2023/05/24 10:43:07;;;;;;;5.85;1.13;;;15.50;83.50;;;;;;5072661;28;20076;-63
2023/05/24 10:45:36;;;;;;;2.78;0.90;;;15.50;87.60;;;;;;5074037;28;20097;-63
2023/05/24 10:48:28;;;;;;;3.30;1.52;;;15.60;88.40;;;;;;5074131;28;20085;-63
2023/05/24 10:50:54;;;;;;;5.10;1.33;;;15.80;89.80;;;;;;5073628;28;20497;-63
2023/05/24 10:53:26;;;;;;;5.25;1.20;;;15.90;90.10;;;;;;5073708;28;20036;-63
2023/05/24 10:55:57;;;;;;;5.18;1.30;;;15.80;83.60;;;;;;5055935;28;20101;-64
2023/05/24 10:58:45;;;;;;;1.83;0.93;;;15.70;76.50;;;;;;5073719;28;20417;-64
2023/05/24 11:01:23;;;;;;;4.35;1.00;;;15.70;80.30;;;;;;5073729;28;20043;-64
2023/05/24 11:03:49;;;;;;;8.48;1.27;;;16.10;77.30;;;;;;5073724;28;20036;-64
2023/05/24 11:06:16;;;;;;;4.25;1.58;;;15.50;75.50;;;;;;5073395;28;20044;-64
2023/05/24 11:08:43;;;;;;;8.05;1.30;;;15.30;74.50;;;;;;5073410;28;20055;-64
2023/05/24 11:11:10;;;;;;;5.35;1.30;;;15.30;74.90;;;;;;5073138;28;20044;-64
2023/05/24 11:13:36;;;;;;;4.80;1.05;;;15.00;70.00;;;;;;5073124;28;20135;-64
2023/05/24 11:16:03;;;;;;;1.85;1.10;;;15.10;77.50;;;;;;5073544;28;20079;-64
2023/05/24 11:18:28;;;;;;;3.13;1.20;;;15.20;78.80;;;;;;5055739;28;20387;-64
2023/05/24 11:20:55;;;;;;;2.05;1.23;;;15.20;76.10;;;;;;5073147;28;20086;-63
2023/05/24 11:23:22;;;;;;;2.58;1.00;;;15.20;72.50;;;;;;5071944;28;20116;-63
2023/05/24 11:25:48;;;;;;;2.78;1.25;;;15.10;75.00;;;;;;5073126;28;20041;-63
2023/05/24 11:28:13;;;;;;;4.10;1.13;;;15.90;72.80;;;;;;5073220;28;20032;-63
2023/05/24 11:30:40;;;;;;;4.32;1.35;;;14.80;72.70;;;;;;5073348;28;20036;-63
2023/05/24 11:33:19;;;;;;;2.17;1.05;;;14.80;71.50;;;;;;5073095;28;20400;-64
2023/05/24 11:35:46;;;;;;;4.82;1.60;;;15.00;70.50;;;;;;5072948;28;20109;-63
2023/05/24 11:38:15;;;;;;;1.77;0.93;;;14.60;72.50;;;;;;5072714;28;20052;-64
2023/05/24 11:40:45;;;;;;;3.42;1.20;;;14.60;74.30;;;;;;5073088;28;20484;-63
2023/05/24 11:43:13;;;;;;;2.92;1.20;;;14.60;73.70;;;;;;5054904;28;20043;-64
2023/05/24 11:45:44;;;;;;;3.13;0.93;;;14.80;73.90;;;;;;5055097;28;20063;-63
2023/05/24 11:48:11;;;;;;;2.05;0.82;;;14.80;77.10;;;;;;5072624;28;20036;-63
2023/05/24 11:50:42;;;;;;;3.33;1.17;;;15.80;77.10;;;;;;5054997;28;20469;-63
2023/05/24 11:53:11;;;;;;;;;;;15.50;78.80;;;;;;5073110;28;20043;-63
2023/05/24 11:55:39;;;;;;;3.25;1.17;;;15.10;78.10;;;;;;5038060;28;19916;-63
2023/05/24 11:58:10;;;;;;;2.67;1.05;;;15.20;81.60;;;;;;5073054;28;20384;-63
2023/05/24 12:00:37;;;;;;;2.53;1.23;;;15.20;82.30;;;;;;5072775;28;20054;-63
2023/05/24 12:03:06;;;;;;;3.83;1.23;;;15.30;85.30;;;;;;5071509;28;20071;-63
2023/05/24 12:05:32;;;;;;;4.78;1.33;;;15.30;84.80;;;;;;5054605;28;20037;-63
2023/05/24 12:08:07;;;;;;;10.52;1.45;;;15.30;83.10;;;;;;5072886;28;20036;-63
2023/05/24 12:10:38;;;;;;;1.95;1.10;;;15.20;91.30;;;;;;5072895;28;20187;-63
2023/05/24 12:13:16;;;;;;;3.97;1.20;;;15.30;79.70;;;;;;5072373;28;20051;-64
2023/05/24 12:15:42;;;;;;;4.25;1.13;;;15.60;79.90;;;;;;5072709;28;20124;-64
2023/05/24 12:18:21;;;;;;;3.50;1.40;;;15.30;76.90;;;;;;5072839;28;20115;-64
2023/05/24 12:20:50;;;;;;;2.95;0.80;;;15.30;78.30;;;;;;5072828;28;20033;-63
2023/05/24 12:23:20;;;;;;;2.35;1.15;;;15.40;77.00;;;;;;5072840;28;20094;-63
2023/05/24 12:25:46;;;;;;;6.28;0.90;;;15.30;79.30;;;;;;5059725;28;20033;-63
2023/05/24 12:28:12;;;;;;;2.92;1.50;;;15.30;81.00;;;;;;5058937;28;20111;-63
2023/05/24 12:30:42;;;;;;;2.80;1.10;;;15.40;83.40;;;;;;5076830;28;20554;-63
2023/05/24 12:33:10;;;;;;;1.97;1.10;;;15.40;79.00;;;;;;5076474;28;20428;-63
2023/05/24 12:35:42;;;;;;;1.85;0.90;;;15.20;77.90;;;;;;5076591;28;20037;-63
2023/05/24 12:38:09;;;;;;;5.80;1.00;;;15.10;75.90;;;;;;5058629;28;20036;-63
2023/05/24 12:40:35;;;;;;;6.10;1.73;;;15.00;76.10;;;;;;5076524;28;20052;-64
2023/05/24 12:43:02;;;;;;;2.30;1.08;;;15.10;75.50;;;;;;5076543;28;20116;-63
2023/05/24 12:45:28;;;;;;;5.53;1.08;;;14.90;76.70;;;;;;5076490;28;20435;-63
2023/05/24 12:47:56;;;;;;;1.42;0.93;;;14.90;75.80;;;;;;5076117;28;20047;-64
2023/05/24 12:50:25;;;;;;;8.60;1.70;;;15.00;79.70;;;;;;5058413;28;20043;-64
2023/05/24 12:52:52;;;;;;;1.85;1.10;;;15.00;78.10;;;;;;5076071;28;20396;-63
2023/05/24 12:55:21;;;;;;;2.10;0.82;;;14.90;79.90;;;;;;5076254;28;20044;-63